Time;durP1;ratioP1;P1;durP2;ratioP2;P2;SDS_P1;SDS_P2;PMS_P1;PMS_P2;Temp;Humidity;BMP_temperature;BMP_pressure;BME280_temperature;BME280_humidity;BME280_pressure;Samples;Min_cycle;Max_cycle;Signal;HPM_P1;HPM_P2
2023/02/15 00:00:23;;;;;;;16.48;8.85;;;5.90;99.90;;;;;;5050384;28;20036;-69
2023/02/15 00:02:48;;;;;;;20.75;9.85;;;6.00;99.90;;;;;;5050104;28;20036;-69
2023/02/15 00:05:14;;;;;;;16.77;9.63;;;6.10;99.90;;;;;;5052587;28;20037;-70
2023/02/15 00:07:39;;;;;;;20.02;9.65;;;6.20;99.90;;;;;;5054183;28;20028;-70
2023/02/15 00:10:06;;;;;;;18.25;9.07;;;6.20;99.90;;;;;;5052723;28;20025;-69
2023/02/15 00:12:32;;;;;;;17.90;9.68;;;6.30;99.90;;;;;;5054357;28;20083;-70
2023/02/15 00:14:57;;;;;;;16.65;9.20;;;6.30;99.90;;;;;;5053744;28;20430;-70
2023/02/15 00:17:23;;;;;;;19.27;9.50;;;6.40;99.90;;;;;;5053646;28;20143;-69
2023/02/15 00:19:49;;;;;;;17.38;9.27;;;6.40;99.90;;;;;;5053698;28;20021;-69
2023/02/15 00:22:15;;;;;;;17.38;9.77;;;6.50;99.90;;;;;;5053875;28;20368;-70
2023/02/15 00:24:41;;;;;;;21.08;10.35;;;6.40;99.90;;;;;;5053422;28;20040;-69
2023/02/15 00:27:06;;;;;;;17.77;9.70;;;6.50;99.90;;;;;;5053188;28;20045;-70
2023/02/15 00:29:32;;;;;;;20.25;9.48;;;6.40;99.90;;;;;;5052388;28;20360;-70
2023/02/15 00:31:58;;;;;;;23.50;11.32;;;6.40;99.90;;;;;;5053324;28;20029;-70
2023/02/15 00:34:26;;;;;;;19.33;10.10;;;6.40;99.90;;;;;;5053746;28;20100;-69
2023/02/15 00:36:52;;;;;;;18.50;10.10;;;6.40;99.90;;;;;;5053327;28;20036;-71
2023/02/15 00:39:18;;;;;;;17.88;8.98;;;6.40;99.90;;;;;;5051919;28;20036;-70
2023/02/15 00:41:45;;;;;;;15.60;7.97;;;6.40;99.90;;;;;;5053057;28;20399;-69
2023/02/15 00:44:12;;;;;;;15.30;9.17;;;6.50;99.90;;;;;;5053241;28;20040;-69
2023/02/15 00:46:38;;;;;;;15.65;8.13;;;6.50;99.90;;;;;;5053348;28;20254;-70
2023/02/15 00:49:04;;;;;;;15.40;8.15;;;6.60;99.90;;;;;;5051820;28;20497;-69
2023/02/15 00:51:30;;;;;;;16.08;8.35;;;6.60;99.90;;;;;;5052926;28;20036;-69
2023/02/15 00:53:55;;;;;;;16.55;9.13;;;6.70;99.90;;;;;;5052771;28;20470;-69
2023/02/15 00:56:21;;;;;;;17.98;9.15;;;6.60;99.90;;;;;;5053026;28;20356;-69
2023/02/15 00:58:47;;;;;;;15.80;8.30;;;6.60;99.90;;;;;;5051973;28;20078;-69
2023/02/15 01:01:16;;;;;;;22.92;9.18;;;6.60;99.90;;;;;;5053265;28;20021;-70
2023/02/15 01:03:42;;;;;;;16.13;8.35;;;6.60;99.90;;;;;;5052813;28;20044;-70
2023/02/15 01:06:08;;;;;;;14.32;7.85;;;6.60;99.90;;;;;;5052792;28;20372;-69
2023/02/15 01:08:34;;;;;;;13.88;8.23;;;6.50;99.90;;;;;;5051352;28;20033;-70
2023/02/15 01:11:05;;;;;;;18.25;8.85;;;6.50;99.90;;;;;;5051413;28;20017;-70
2023/02/15 01:13:30;;;;;;;20.58;10.20;;;6.50;99.90;;;;;;5053337;28;20021;-69
2023/02/15 01:15:56;;;;;;;17.55;9.35;;;6.30;99.90;;;;;;5051555;28;20032;-69
2023/02/15 01:18:22;;;;;;;17.42;9.77;;;6.20;99.90;;;;;;5052041;28;20029;-69
2023/02/15 01:20:48;;;;;;;15.38;8.88;;;6.10;99.90;;;;;;5052172;28;20043;-70
2023/02/15 01:23:14;;;;;;;15.63;9.23;;;6.00;99.90;;;;;;5052242;28;20118;-70
2023/02/15 01:25:40;;;;;;;17.38;8.75;;;5.90;99.90;;;;;;5052760;28;20100;-69
2023/02/15 01:28:06;;;;;;;19.10;9.48;;;5.90;99.90;;;;;;5052188;28;20140;-69
2023/02/15 01:30:32;;;;;;;19.13;9.43;;;5.90;99.90;;;;;;5052235;28;20044;-69
2023/02/15 01:32:58;;;;;;;17.05;8.70;;;5.90;99.90;;;;;;5052127;28;20029;-70
2023/02/15 01:35:24;;;;;;;15.27;8.93;;;5.70;99.90;;;;;;5052264;28;20037;-69
2023/02/15 01:37:49;;;;;;;20.40;9.55;;;5.70;99.90;;;;;;5051958;28;20443;-70
2023/02/15 01:40:17;;;;;;;16.15;8.80;;;5.60;99.90;;;;;;5052439;28;20025;-69
2023/02/15 01:42:44;;;;;;;20.42;9.25;;;5.50;99.90;;;;;;5050947;28;20122;-69
2023/02/15 01:45:30;;;;;;;15.95;8.60;;;5.40;99.90;;;;;;5051913;28;20459;-69
2023/02/15 01:48:06;;;;;;;16.83;8.73;;;5.40;99.90;;;;;;5050729;28;20033;-69
2023/02/15 01:50:38;;;;;;;16.60;9.65;;;5.40;99.90;;;;;;5051765;28;20098;-69
2023/02/15 01:53:08;;;;;;;18.08;9.30;;;5.50;99.90;;;;;;5050692;28;20505;-69
2023/02/15 01:55:43;;;;;;;13.55;7.55;;;5.50;99.90;;;;;;5052073;28;20029;-70
2023/02/15 01:58:08;;;;;;;16.05;8.88;;;5.60;99.90;;;;;;5051778;28;20065;-68
2023/02/15 02:00:35;;;;;;;18.23;9.07;;;5.60;99.90;;;;;;5051520;28;20049;-69
2023/02/15 02:03:01;;;;;;;21.05;10.18;;;5.60;99.90;;;;;;5050458;28;20464;-69
2023/02/15 02:05:28;;;;;;;18.98;9.13;;;5.50;99.90;;;;;;5051639;28;20382;-69
2023/02/15 02:07:58;;;;;;;15.30;8.48;;;5.60;99.90;;;;;;5051498;28;20229;-69
2023/02/15 02:10:24;;;;;;;14.75;8.02;;;5.50;99.90;;;;;;5050735;28;20463;-68
2023/02/15 02:12:54;;;;;;;17.83;9.57;;;5.50;99.90;;;;;;5051506;28;20410;-68
2023/02/15 02:15:44;;;;;;;18.85;10.00;;;5.50;99.90;;;;;;5051602;28;20024;-69
2023/02/15 02:18:21;;;;;;;16.63;8.50;;;5.50;99.90;;;;;;5050781;28;20467;-70
2023/02/15 02:21:04;;;;;;;18.13;9.55;;;5.40;99.90;;;;;;5051287;28;20040;-69
2023/02/15 02:23:38;;;;;;;16.38;9.00;;;5.20;99.90;;;;;;5050238;28;20032;-69
2023/02/15 02:26:45;;;;;;;16.90;8.35;;;5.20;99.90;;;;;;5050997;28;20037;-69
2023/02/15 02:29:48;;;;;;;22.83;9.73;;;5.10;99.90;;;;;;5051311;28;20374;-68
2023/02/15 02:32:33;;;;;;;16.90;9.07;;;5.00;99.90;;;;;;5051099;28;20067;-69
2023/02/15 02:35:57;;;;;;;18.65;9.60;;;5.00;99.90;;;;;;5053569;28;20401;-69
2023/02/15 02:38:51;;;;;;;18.08;8.60;;;5.00;99.90;;;;;;5028884;28;20034;-69
2023/02/15 02:41:23;;;;;;;17.73;9.25;;;5.10;99.90;;;;;;5090244;28;20031;-70
2023/02/15 02:44:30;;;;;;;14.85;8.15;;;5.20;99.90;;;;;;5090273;28;20457;-69
2023/02/15 02:47:07;;;;;;;18.42;8.70;;;5.30;99.90;;;;;;5073667;28;20067;-69
2023/02/15 02:49:36;;;;;;;16.92;8.75;;;5.40;99.90;;;;;;5091607;28;20020;-69
2023/02/15 02:52:03;;;;;;;;;;;5.30;99.90;;;;;;5090605;28;20056;-69
2023/02/15 02:54:30;;;;;;;16.58;8.73;;;5.40;99.90;;;;;;5089996;28;20009;-69
2023/02/15 02:56:59;;;;;;;17.02;9.18;;;5.40;99.90;;;;;;5090952;28;20028;-68
2023/02/15 02:59:33;;;;;;;18.55;9.25;;;5.40;99.90;;;;;;5091212;28;20043;-70
2023/02/15 03:02:02;;;;;;;19.55;9.13;;;5.40;99.90;;;;;;5090859;28;20034;-70
2023/02/15 03:04:32;;;;;;;17.45;8.55;;;5.40;99.90;;;;;;5091232;28;20031;-68
2023/02/15 03:07:05;;;;;;;17.52;9.20;;;5.40;99.90;;;;;;5089705;28;20592;-70
2023/02/15 03:09:41;;;;;;;15.48;8.68;;;5.40;99.90;;;;;;5091029;28;20035;-69
2023/02/15 03:12:16;;;;;;;19.73;10.15;;;5.40;99.90;;;;;;5089759;28;20036;-69
2023/02/15 03:14:45;;;;;;;21.95;9.80;;;5.40;99.90;;;;;;5090876;28;20028;-69
2023/02/15 03:17:13;;;;;;;17.40;9.52;;;5.40;99.90;;;;;;5090696;28;20498;-69
2023/02/15 03:19:40;;;;;;;17.00;8.95;;;5.50;99.90;;;;;;5090144;28;20024;-69
2023/02/15 03:22:11;;;;;;;16.17;8.82;;;5.40;99.90;;;;;;5091143;28;20032;-69
2023/02/15 03:24:46;;;;;;;20.05;9.02;;;5.30;99.90;;;;;;5090791;28;20028;-70
2023/02/15 03:27:17;;;;;;;18.75;10.02;;;5.20;99.90;;;;;;5090490;28;20135;-69
2023/02/15 03:29:44;;;;;;;20.40;9.75;;;5.30;99.90;;;;;;5090988;28;20060;-69
2023/02/15 03:32:13;;;;;;;17.17;9.10;;;5.10;99.90;;;;;;5090282;28;20036;-69
2023/02/15 03:34:39;;;;;;;20.98;8.60;;;5.20;99.90;;;;;;5090875;28;20454;-68
2023/02/15 03:37:27;;;;;;;18.83;9.85;;;5.30;99.90;;;;;;5090603;28;20032;-69
2023/02/15 03:41:09;;;;;;;19.23;9.23;;;5.40;99.90;;;;;;5094240;28;20476;-70
2023/02/15 03:42:55;;;;;;;17.70;9.52;;;5.30;99.90;;;;;;5094182;28;20028;-68
2023/02/15 03:45:28;;;;;;;15.95;8.77;;;5.40;99.90;;;;;;5093473;28;20029;-69
2023/02/15 03:47:56;;;;;;;18.85;9.32;;;5.30;99.90;;;;;;5093528;28;20040;-69
2023/02/15 03:53:15;;;;;;;19.92;9.27;;;5.30;99.90;;;;;;5094294;28;20004;-69
2023/02/15 03:55:41;;;;;;;17.55;8.70;;;5.30;99.90;;;;;;5094800;28;20012;-70
2023/02/15 04:04:01;;;;;;;17.35;9.48;;;5.30;99.90;;;;;;5094201;28;20518;-70
2023/02/15 04:06:27;;;;;;;19.42;10.10;;;5.30;99.90;;;;;;5094033;28;20032;-70
2023/02/15 04:11:36;;;;;;;18.98;9.70;;;5.30;99.90;;;;;;5094015;28;20046;-69
2023/02/15 04:16:02;;;;;;;17.38;9.63;;;5.20;99.90;;;;;;5093869;28;20032;-69
2023/02/15 04:16:47;;;;;;;22.10;10.13;;;5.20;99.90;;;;;;5093743;28;20024;-70
2023/02/15 04:27:26;;;;;;;18.23;9.27;;;4.90;99.90;;;;;;5093911;28;20054;-69
2023/02/15 04:29:52;;;;;;;20.13;10.38;;;4.90;99.90;;;;;;5093614;28;20122;-70
2023/02/15 04:32:17;;;;;;;17.23;8.95;;;4.90;99.90;;;;;;5093717;28;20039;-69
2023/02/15 04:34:43;;;;;;;19.85;9.40;;;4.80;99.90;;;;;;5093655;28;20304;-69
2023/02/15 04:37:10;;;;;;;19.33;9.25;;;4.70;99.90;;;;;;5092849;28;20162;-69
2023/02/15 04:39:35;;;;;;;23.77;10.75;;;4.70;99.90;;;;;;5093375;28;20111;-69
2023/02/15 04:42:01;;;;;;;23.30;11.40;;;4.70;99.90;;;;;;5093432;28;20174;-69
2023/02/15 04:44:27;;;;;;;19.65;9.48;;;4.60;99.90;;;;;;5093308;28;20028;-69
2023/02/15 04:46:52;;;;;;;20.05;10.00;;;4.60;99.90;;;;;;5093070;28;20078;-69
2023/02/15 04:49:18;;;;;;;22.10;10.13;;;4.50;99.90;;;;;;5092698;28;20023;-70
2023/02/15 04:51:44;;;;;;;19.58;9.77;;;4.60;99.90;;;;;;5093045;28;20032;-69
2023/02/15 04:54:09;;;;;;;23.50;10.63;;;4.60;99.90;;;;;;5091928;28;20033;-69
2023/02/15 04:56:37;;;;;;;18.63;9.98;;;4.60;99.90;;;;;;5091943;28;20370;-70
2023/02/15 04:59:03;;;;;;;20.38;9.82;;;4.50;99.90;;;;;;5091991;28;20509;-70
2023/02/15 05:01:29;;;;;;;19.65;9.43;;;4.50;99.90;;;;;;5093451;28;20103;-69
2023/02/15 05:03:54;;;;;;;20.33;10.02;;;4.40;99.90;;;;;;5093054;28;20089;-70
2023/02/15 05:06:20;;;;;;;19.33;9.65;;;4.40;99.90;;;;;;5092780;28;20363;-70
2023/02/15 05:08:46;;;;;;;20.05;10.70;;;4.40;99.90;;;;;;5093017;28;20371;-70
2023/02/15 05:11:11;;;;;;;24.55;10.13;;;4.40;99.90;;;;;;5093021;28;20446;-70
2023/02/15 05:13:37;;;;;;;21.48;9.45;;;4.40;99.90;;;;;;5093360;28;20024;-69
2023/02/15 05:16:03;;;;;;;20.98;10.07;;;4.40;99.90;;;;;;5092740;28;20098;-69
2023/02/15 05:18:29;;;;;;;20.17;9.73;;;4.40;99.90;;;;;;5091197;28;20407;-69
2023/02/15 05:20:55;;;;;;;19.27;9.95;;;4.40;99.90;;;;;;5092889;28;20028;-69
2023/02/15 05:23:20;;;;;;;19.55;10.23;;;4.40;99.90;;;;;;5093008;28;20455;-70
2023/02/15 05:28:32;;;;;;;19.60;9.65;;;4.40;99.90;;;;;;5093326;28;20128;-68
2023/02/15 05:31:03;;;;;;;22.30;9.95;;;4.40;99.90;;;;;;5092474;28;20441;-69
2023/02/15 05:33:29;;;;;;;25.13;10.18;;;4.40;99.90;;;;;;5091315;28;20027;-69
2023/02/15 05:35:55;;;;;;;22.02;11.32;;;4.30;99.90;;;;;;5092314;28;20036;-69
2023/02/15 05:38:20;;;;;;;19.50;9.65;;;4.20;99.90;;;;;;5091262;28;20499;-69
2023/02/15 05:40:46;;;;;;;19.75;10.15;;;4.20;99.90;;;;;;5092255;28;20027;-70
2023/02/15 05:43:12;;;;;;;25.48;10.98;;;4.30;99.90;;;;;;5092779;28;20024;-69
2023/02/15 05:45:37;;;;;;;22.73;10.85;;;4.30;99.90;;;;;;5092312;28;20085;-69
2023/02/15 05:48:03;;;;;;;21.75;11.13;;;4.20;99.90;;;;;;5092266;28;20063;-69
2023/02/15 05:50:28;;;;;;;18.75;9.75;;;4.30;99.90;;;;;;5092179;28;20190;-70
2023/02/15 05:52:54;;;;;;;24.52;11.73;;;4.30;99.90;;;;;;5091950;28;20084;-68
2023/02/15 05:55:20;;;;;;;20.75;9.82;;;4.40;99.90;;;;;;5091415;28;20016;-69
2023/02/15 05:57:46;;;;;;;27.75;12.18;;;4.40;99.90;;;;;;5091687;28;20043;-70
2023/02/15 06:00:13;;;;;;;20.17;10.40;;;4.50;99.90;;;;;;5090850;28;20036;-70
2023/02/15 06:02:39;;;;;;;25.00;11.25;;;4.50;99.90;;;;;;5090103;28;20051;-70
2023/02/15 06:05:05;;;;;;;19.88;10.25;;;4.50;99.90;;;;;;5091755;28;20032;-69
2023/02/15 06:07:31;;;;;;;22.67;11.48;;;4.50;99.90;;;;;;5092198;28;20299;-70
2023/02/15 06:09:57;;;;;;;26.75;12.38;;;4.50;99.90;;;;;;5091854;28;20085;-70
2023/02/15 06:12:23;;;;;;;26.15;11.93;;;4.60;99.90;;;;;;5091689;28;20036;-70
2023/02/15 06:14:49;;;;;;;24.85;12.35;;;4.60;99.90;;;;;;5091675;28;20035;-70
2023/02/15 06:17:16;;;;;;;29.73;12.70;;;4.70;99.90;;;;;;5090627;28;20512;-69
2023/02/15 06:19:42;;;;;;;24.23;12.33;;;4.50;99.90;;;;;;5092770;28;20071;-71
2023/02/15 06:22:07;;;;;;;26.15;12.18;;;4.60;99.90;;;;;;5091673;28;20523;-69
2023/02/15 06:24:33;;;;;;;25.73;12.82;;;4.60;99.90;;;;;;5090729;28;20081;-71
2023/02/15 06:26:59;;;;;;;26.80;11.95;;;4.60;99.90;;;;;;5091374;28;20432;-71
2023/02/15 06:29:24;;;;;;;25.05;11.80;;;4.60;99.90;;;;;;5090728;28;20066;-70
2023/02/15 06:31:50;;;;;;;25.23;12.55;;;4.70;99.90;;;;;;5090275;28;20028;-71
2023/02/15 06:34:16;;;;;;;22.23;12.38;;;4.70;99.90;;;;;;5091880;28;20036;-77
2023/02/15 06:36:42;;;;;;;26.35;11.98;;;4.80;99.90;;;;;;5091542;28;20040;-69
2023/02/15 06:39:08;;;;;;;23.70;12.02;;;4.80;99.90;;;;;;5091362;28;20605;-69
2023/02/15 06:41:33;;;;;;;24.88;12.27;;;4.80;99.90;;;;;;5091127;28;20385;-68
2023/02/15 06:44:00;;;;;;;25.02;12.50;;;4.70;99.90;;;;;;5057484;28;20513;-69
2023/02/15 06:46:26;;;;;;;25.38;12.88;;;4.80;99.90;;;;;;5051178;28;20048;-70
2023/02/15 06:48:52;;;;;;;24.25;11.85;;;4.80;99.90;;;;;;5050718;28;20486;-70
2023/02/15 06:51:18;;;;;;;25.77;12.65;;;4.80;99.90;;;;;;5050521;28;20033;-70
2023/02/15 06:53:43;;;;;;;27.08;13.00;;;4.80;99.90;;;;;;5050408;28;20064;-69
2023/02/15 06:56:10;;;;;;;26.70;11.95;;;4.80;99.90;;;;;;5049320;28;20044;-70
2023/02/15 06:58:37;;;;;;;25.35;12.75;;;4.80;99.90;;;;;;5050363;28;20114;-71
2023/02/15 07:01:03;;;;;;;28.98;13.18;;;4.80;99.90;;;;;;5050715;28;20037;-69
2023/02/15 07:03:30;;;;;;;24.17;12.55;;;4.80;99.90;;;;;;5050696;28;20026;-72
2023/02/15 07:05:57;;;;;;;24.98;12.27;;;4.90;99.90;;;;;;5050514;28;20040;-69
2023/02/15 07:08:23;;;;;;;32.47;12.57;;;4.90;99.90;;;;;;5050495;28;20037;-69
2023/02/15 07:10:53;;;;;;;25.50;12.20;;;4.90;99.90;;;;;;5050211;28;20032;-68
2023/02/15 07:13:19;;;;;;;24.25;11.82;;;4.80;99.90;;;;;;5050180;28;20025;-70
2023/02/15 07:15:46;;;;;;;26.40;12.88;;;4.90;99.90;;;;;;5050427;28;20116;-69
2023/02/15 07:18:12;;;;;;;27.98;13.52;;;4.90;99.90;;;;;;5049525;28;20037;-69
2023/02/15 07:20:38;;;;;;;27.25;12.27;;;4.90;99.90;;;;;;5050563;28;20464;-72
2023/02/15 07:23:04;;;;;;;27.75;13.32;;;5.00;99.90;;;;;;5050478;28;20082;-68
2023/02/15 07:25:30;;;;;;;30.80;15.30;;;4.90;99.90;;;;;;5050886;28;20036;-69
2023/02/15 07:27:58;;;;;;;26.65;13.43;;;5.00;99.90;;;;;;5050335;28;20119;-71
2023/02/15 07:30:23;;;;;;;28.90;13.05;;;5.00;99.90;;;;;;5050277;28;20108;-72
2023/02/15 07:35:34;;;;;;;26.77;12.45;;;5.00;99.90;;;;;;5050395;28;20035;-71
2023/02/15 07:38:00;;;;;;;28.48;13.07;;;5.10;99.90;;;;;;5050486;28;20018;-71
2023/02/15 07:40:26;;;;;;;24.30;12.30;;;5.10;99.90;;;;;;5050999;28;20029;-70
2023/02/15 07:42:54;;;;;;;36.17;12.95;;;5.20;99.90;;;;;;5050052;28;20048;-70
2023/02/15 07:45:20;;;;;;;28.55;12.15;;;5.20;99.90;;;;;;5049085;28;20033;-70
2023/02/15 07:47:47;;;;;;;25.23;12.77;;;5.20;99.90;;;;;;5050075;28;20043;-68
2023/02/15 07:50:12;;;;;;;29.85;14.00;;;5.20;99.90;;;;;;5050269;28;20033;-69
2023/02/15 07:52:38;;;;;;;24.98;12.85;;;5.20;99.90;;;;;;5051061;28;20027;-71
2023/02/15 07:55:04;;;;;;;30.05;12.80;;;5.20;99.90;;;;;;5050258;28;20462;-71
2023/02/15 07:57:30;;;;;;;25.77;13.43;;;5.30;99.90;;;;;;5050983;28;20033;-71
2023/02/15 07:59:56;;;;;;;24.65;13.15;;;5.30;99.90;;;;;;5049360;28;20418;-69
2023/02/15 08:02:22;;;;;;;25.48;13.15;;;5.30;99.90;;;;;;5050807;28;20124;-69
2023/02/15 08:04:47;;;;;;;27.90;13.98;;;5.40;99.90;;;;;;5050233;28;20025;-71
2023/02/15 08:07:13;;;;;;;27.67;12.35;;;5.40;99.90;;;;;;5051433;28;20028;-69
2023/02/15 08:09:39;;;;;;;23.00;12.18;;;5.40;99.90;;;;;;5050487;28;20037;-70
2023/02/15 08:12:04;;;;;;;34.33;15.75;;;5.60;99.90;;;;;;5050290;28;20086;-69
2023/02/15 08:14:32;;;;;;;26.08;13.38;;;5.50;99.90;;;;;;5050151;28;20048;-71
2023/02/15 08:17:02;;;;;;;29.17;13.75;;;5.50;99.90;;;;;;5049638;28;20028;-71
2023/02/15 08:19:31;;;;;;;24.27;11.98;;;5.50;99.90;;;;;;5050325;28;20398;-69
2023/02/15 08:22:03;;;;;;;25.38;13.00;;;5.60;99.90;;;;;;5049833;28;20039;-69
2023/02/15 08:24:32;;;;;;;28.23;12.65;;;5.60;99.90;;;;;;5050645;28;20033;-69
2023/02/15 08:26:58;;;;;;;23.67;12.77;;;5.70;99.90;;;;;;5053087;28;20128;-70
2023/02/15 08:29:28;;;;;;;25.20;13.02;;;5.80;99.90;;;;;;5053493;28;20048;-70
2023/02/15 08:32:08;;;;;;;27.75;13.10;;;5.80;99.90;;;;;;5053136;28;20022;-69
2023/02/15 08:34:38;;;;;;;26.27;12.63;;;5.90;99.90;;;;;;5053642;28;20024;-69
2023/02/15 08:37:05;;;;;;;25.48;11.75;;;5.90;99.90;;;;;;5053094;28;20040;-69
2023/02/15 08:39:31;;;;;;;24.40;12.40;;;6.00;99.90;;;;;;5053053;28;20418;-70
2023/02/15 08:41:58;;;;;;;26.90;12.93;;;6.00;99.90;;;;;;5053100;28;20037;-69
2023/02/15 08:44:24;;;;;;;26.42;13.52;;;6.10;99.90;;;;;;5053136;28;20024;-70
2023/02/15 08:46:50;;;;;;;25.63;12.75;;;6.10;99.90;;;;;;5052867;28;20510;-70
2023/02/15 08:49:18;;;;;;;23.70;12.00;;;6.20;99.90;;;;;;5053334;28;20114;-71
2023/02/15 08:51:45;;;;;;;26.00;13.13;;;6.40;99.90;;;;;;5052797;28;20574;-69
2023/02/15 08:54:16;;;;;;;26.15;13.07;;;6.60;99.90;;;;;;5052042;28;20056;-71
2023/02/15 08:56:43;;;;;;;25.08;13.27;;;7.10;99.90;;;;;;5052120;28;20675;-71
2023/02/15 08:59:20;;;;;;;25.35;12.10;;;7.80;99.90;;;;;;5052771;28;20076;-71
2023/02/15 09:01:48;;;;;;;26.80;13.27;;;8.40;99.20;;;;;;5051647;28;20039;-71
2023/02/15 09:04:15;;;;;;;24.40;12.80;;;8.70;98.20;;;;;;5053173;28;20028;-71
2023/02/15 09:06:43;;;;;;;21.00;11.80;;;9.00;97.60;;;;;;5052788;28;20498;-70
2023/02/15 09:09:10;;;;;;;;;;;9.30;97.20;;;;;;5053080;28;20110;-71
2023/02/15 09:11:38;;;;;;;21.52;11.30;;;9.50;96.40;;;;;;5052448;28;19909;-69
2023/02/15 09:14:13;;;;;;;19.50;10.85;;;9.60;96.30;;;;;;5052452;28;20029;-70
2023/02/15 09:16:41;;;;;;;20.88;12.18;;;9.70;95.50;;;;;;5052637;28;20025;-70
2023/02/15 09:19:07;;;;;;;23.13;11.23;;;9.60;95.60;;;;;;5052360;28;20040;-72
2023/02/15 09:21:35;;;;;;;21.60;12.05;;;9.60;95.40;;;;;;5052191;28;20029;-71
2023/02/15 09:24:04;;;;;;;20.92;11.68;;;9.70;95.00;;;;;;5052196;28;20072;-71
2023/02/15 09:26:31;;;;;;;19.60;10.98;;;9.60;95.30;;;;;;5051124;28;20094;-72
2023/02/15 09:29:00;;;;;;;22.20;11.70;;;9.60;95.10;;;;;;5050903;28;20052;-72
2023/02/15 09:31:30;;;;;;;22.02;11.70;;;9.60;94.60;;;;;;5052615;28;20330;-71
2023/02/15 09:33:58;;;;;;;22.70;12.18;;;9.80;95.00;;;;;;5051754;28;20029;-71
2023/02/15 09:36:26;;;;;;;22.02;11.63;;;9.70;94.90;;;;;;5050770;28;20033;-70
2023/02/15 09:38:57;;;;;;;;;;;9.60;94.50;;;;;;5052222;28;20134;-71
2023/02/15 09:41:38;;;;;;;21.35;11.32;;;9.80;95.00;;;;;;5051833;28;19924;-71
2023/02/15 09:44:12;;;;;;;21.63;11.45;;;9.80;94.80;;;;;;5050624;28;20925;-71
2023/02/15 09:46:44;;;;;;;23.52;12.93;;;10.10;94.20;;;;;;5051078;28;20025;-71
2023/02/15 09:49:37;;;;;;;23.92;11.30;;;10.20;94.00;;;;;;5051529;28;20052;-72
2023/02/15 09:52:31;;;;;;;18.90;11.13;;;10.30;94.10;;;;;;5051480;28;20475;-71
2023/02/15 09:55:07;;;;;;;26.02;11.13;;;10.10;93.40;;;;;;5051216;28;20059;-70
2023/02/15 09:57:35;;;;;;;19.10;10.52;;;10.20;93.60;;;;;;5051156;28;20044;-70
2023/02/15 10:00:19;;;;;;;22.33;11.88;;;9.90;93.80;;;;;;5051432;28;20467;-72
2023/02/15 10:03:31;;;;;;;18.83;10.02;;;9.90;93.90;;;;;;5050986;28;20033;-71
2023/02/15 10:06:02;;;;;;;18.23;10.18;;;10.20;93.80;;;;;;5033730;28;20033;-73
2023/02/15 10:08:48;;;;;;;19.02;10.70;;;10.80;93.00;;;;;;5050533;28;20075;-71
2023/02/15 10:14:39;;;;;;;18.13;10.38;;;12.60;91.30;;;;;;5051470;28;20488;-71
2023/02/15 10:17:34;;;;;;;16.02;9.00;;;13.60;90.30;;;;;;5051367;28;20044;-72
2023/02/15 10:20:05;;;;;;;68.93;36.22;;;14.80;86.10;;;;;;5052166;28;20494;-69
2023/02/15 10:23:06;;;;;;;26.40;14.65;;;15.40;84.20;;;;;;5052072;28;20371;-72
2023/02/15 10:25:31;;;;;;;17.70;10.63;;;16.20;84.30;;;;;;5025956;28;20041;-75
2023/02/15 10:28:27;;;;;;;15.82;10.25;;;16.80;81.50;;;;;;5051583;28;20049;-71
2023/02/15 10:31:24;;;;;;;16.50;10.05;;;17.10;79.30;;;;;;5045744;28;20063;-71
2023/02/15 10:34:01;;;;;;;16.27;9.45;;;17.40;78.40;;;;;;5051116;28;20025;-72
2023/02/15 10:36:46;;;;;;;16.40;9.95;;;17.40;75.30;;;;;;5050996;28;20059;-71
2023/02/15 10:39:33;;;;;;;14.32;9.20;;;18.10;76.60;;;;;;5049765;28;20044;-73
2023/02/15 10:42:10;;;;;;;17.10;9.95;;;18.40;72.10;;;;;;5050813;28;20040;-71
2023/02/15 10:45:18;;;;;;;16.13;9.65;;;18.70;73.70;;;;;;5050541;28;20040;-71
2023/02/15 10:48:04;;;;;;;13.77;9.25;;;19.10;71.80;;;;;;5049381;28;20048;-70
2023/02/15 10:50:48;;;;;;;15.48;9.05;;;19.40;71.30;;;;;;5049620;28;20094;-72
2023/02/15 10:53:40;;;;;;;14.93;8.93;;;19.10;68.80;;;;;;5050524;28;20029;-71
2023/02/15 10:56:16;;;;;;;14.38;9.40;;;18.90;68.60;;;;;;5050323;28;20041;-72
2023/02/15 10:59:00;;;;;;;14.23;9.15;;;18.70;67.80;;;;;;5050879;28;20029;-71
2023/02/15 11:01:44;;;;;;;14.45;9.40;;;19.20;70.50;;;;;;5050673;28;20025;-70
2023/02/15 11:04:21;;;;;;;14.70;8.77;;;19.40;66.40;;;;;;5050666;28;20170;-71
2023/02/15 11:06:58;;;;;;;15.55;9.98;;;19.30;66.10;;;;;;5049409;28;20444;-72
2023/02/15 11:09:29;;;;;;;18.17;9.18;;;19.80;66.40;;;;;;5050140;28;20430;-69
2023/02/15 11:11:59;;;;;;;15.75;9.45;;;20.00;65.20;;;;;;5050419;28;20394;-71
2023/02/15 11:14:43;;;;;;;16.23;9.45;;;20.00;64.40;;;;;;5050062;28;20051;-72
2023/02/15 11:17:15;;;;;;;16.38;9.63;;;20.30;63.90;;;;;;5049844;28;20032;-74
2023/02/15 11:20:07;;;;;;;14.93;10.13;;;20.00;62.80;;;;;;5049657;28;20035;-75
2023/02/15 11:22:34;;;;;;;14.45;8.68;;;20.20;62.70;;;;;;5050140;28;20066;-73
2023/02/15 11:25:01;;;;;;;13.70;8.43;;;20.80;64.00;;;;;;5050430;28;20086;-73
2023/02/15 11:27:32;;;;;;;15.15;9.20;;;20.70;60.60;;;;;;5048722;28;20049;-74
2023/02/15 11:30:00;;;;;;;19.90;9.95;;;20.50;61.70;;;;;;5049208;28;20087;-71
2023/02/15 11:32:31;;;;;;;13.77;8.82;;;20.40;61.60;;;;;;5050125;28;20025;-72
2023/02/15 11:35:12;;;;;;;21.65;12.82;;;20.50;59.40;;;;;;5050345;28;20029;-72
2023/02/15 11:37:56;;;;;;;15.13;9.10;;;20.40;61.50;;;;;;5050460;28;20032;-71
2023/02/15 11:40:28;;;;;;;13.80;9.00;;;20.70;60.50;;;;;;5050296;28;20110;-70
2023/02/15 11:43:02;;;;;;;15.40;9.50;;;21.00;59.30;;;;;;5050240;28;20025;-71
2023/02/15 11:45:34;;;;;;;12.63;8.70;;;20.90;59.10;;;;;;5050074;28;20082;-72
2023/02/15 11:48:01;;;;;;;18.88;9.43;;;21.40;59.80;;;;;;5048549;28;20029;-72
2023/02/15 11:50:32;;;;;;;15.07;8.70;;;21.10;58.90;;;;;;5050168;28;20036;-72
2023/02/15 11:53:15;;;;;;;15.43;8.50;;;20.80;59.00;;;;;;5048369;28;20032;-72
2023/02/15 11:55:46;;;;;;;18.85;10.15;;;20.80;59.00;;;;;;5050479;28;20431;-73
2023/02/15 11:58:22;;;;;;;16.15;10.25;;;20.40;59.30;;;;;;5049971;28;20283;-72
2023/02/15 12:00:54;;;;;;;21.95;9.55;;;20.30;59.00;;;;;;5051955;28;20040;-71
2023/02/15 12:03:33;;;;;;;16.63;9.73;;;20.00;59.70;;;;;;5053970;28;20025;-70
2023/02/15 12:06:03;;;;;;;20.70;9.65;;;19.60;59.80;;;;;;5052773;28;20032;-72
2023/02/15 12:08:40;;;;;;;13.93;8.77;;;19.30;61.20;;;;;;5053769;28;20112;-71
2023/02/15 12:11:08;;;;;;;14.90;9.25;;;18.90;61.20;;;;;;5053672;28;20083;-71
2023/02/15 12:13:33;;;;;;;18.92;9.27;;;18.40;62.10;;;;;;5053942;28;20027;-71
2023/02/15 12:16:07;;;;;;;17.20;10.57;;;18.10;62.60;;;;;;5053326;28;20428;-71
2023/02/15 12:18:37;;;;;;;16.67;10.20;;;17.60;63.90;;;;;;5053477;28;20483;-71
2023/02/15 12:21:11;;;;;;;19.10;10.40;;;17.50;64.10;;;;;;5052215;28;20033;-72
2023/02/15 12:24:00;;;;;;;19.95;9.52;;;17.20;64.20;;;;;;5052626;28;20056;-72
2023/02/15 12:26:35;;;;;;;18.20;10.60;;;16.90;65.30;;;;;;5052410;28;20040;-72
2023/02/15 12:29:07;;;;;;;15.75;9.60;;;16.70;65.70;;;;;;5052950;28;20468;-71
2023/02/15 12:31:44;;;;;;;17.70;9.55;;;16.40;66.80;;;;;;5054663;28;20114;-70
2023/02/15 12:34:31;;;;;;;16.77;10.00;;;16.50;67.10;;;;;;5052983;28;20033;-72
2023/02/15 12:37:08;;;;;;;17.50;9.98;;;16.30;66.80;;;;;;5054032;28;20036;-72
2023/02/15 12:39:34;;;;;;;16.40;9.18;;;16.20;67.40;;;;;;5054506;28;20029;-70
2023/02/15 12:42:13;;;;;;;19.30;9.65;;;16.10;67.90;;;;;;5053367;28;20074;-71
2023/02/15 12:45:03;;;;;;;18.35;9.52;;;15.80;67.90;;;;;;5052135;28;20118;-72
2023/02/15 12:47:30;;;;;;;16.38;9.43;;;15.50;68.80;;;;;;5053060;28;20040;-71
2023/02/15 12:50:23;;;;;;;20.23;10.35;;;15.40;69.40;;;;;;5053623;28;20455;-71
2023/02/15 12:52:51;;;;;;;18.67;10.05;;;15.00;69.80;;;;;;5048159;28;20037;-75
2023/02/15 12:55:27;;;;;;;18.05;10.32;;;14.70;71.50;;;;;;5053361;28;20033;-70
2023/02/15 12:58:23;;;;;;;19.00;9.93;;;14.60;71.70;;;;;;5052630;28;20124;-69
2023/02/15 13:01:02;;;;;;;18.10;9.70;;;14.60;72.00;;;;;;5051682;28;20025;-72
2023/02/15 13:03:28;;;;;;;17.75;10.23;;;14.60;72.50;;;;;;5052920;28;20033;-72
2023/02/15 13:05:56;;;;;;;15.77;10.13;;;14.50;72.90;;;;;;5053381;28;20036;-75
2023/02/15 13:08:31;;;;;;;18.50;11.38;;;14.40;73.70;;;;;;5052937;28;20040;-72
2023/02/15 13:11:04;;;;;;;19.88;10.18;;;14.50;73.60;;;;;;5052446;28;20039;-73
2023/02/15 13:13:34;;;;;;;18.33;10.70;;;14.50;73.10;;;;;;5053033;28;20013;-73
2023/02/15 13:16:07;;;;;;;20.23;11.18;;;14.60;73.40;;;;;;5052460;28;20399;-72
2023/02/15 13:18:36;;;;;;;19.55;10.90;;;14.60;73.30;;;;;;5052614;28;20033;-72
2023/02/15 13:21:11;;;;;;;17.95;10.40;;;14.60;73.00;;;;;;5051528;28;20040;-73
2023/02/15 13:23:39;;;;;;;18.85;10.43;;;14.30;73.40;;;;;;5052515;28;20459;-73
2023/02/15 13:26:10;;;;;;;20.27;10.20;;;14.30;73.70;;;;;;5052448;28;20367;-73
2023/02/15 13:28:46;;;;;;;18.40;11.10;;;14.20;74.10;;;;;;5051796;28;20451;-72